createdAt,value
2023-07-11T00:00:01.575Z,83.34
2023-07-11T00:01:01.563Z,83.84
2023-07-11T00:02:01.612Z,83.54
2023-07-11T00:03:01.590Z,83.04
2023-07-11T00:04:01.549Z,82.94
2023-07-11T00:05:01.494Z,82.74
2023-07-11T00:06:01.529Z,82.64
2023-07-11T00:07:01.493Z,82.64
2023-07-11T00:08:01.566Z,82.44
2023-07-11T00:09:01.448Z,83.04
2023-07-11T00:10:01.473Z,83.25
2023-07-11T00:11:01.432Z,83.14
2023-07-11T00:12:01.447Z,83.65
2023-07-11T00:13:01.413Z,83.54
2023-07-11T00:14:01.423Z,83.95
2023-07-11T00:15:01.388Z,84.25
2023-07-11T00:16:01.385Z,84.05
2023-07-11T00:17:01.511Z,84.15
2023-07-11T00:18:01.427Z,84.55
2023-07-11T00:19:01.336Z,84.35
2023-07-11T00:20:01.360Z,84.29
2023-07-11T00:21:01.319Z,84.19
2023-07-11T00:22:01.342Z,84.19
2023-07-11T00:23:01.312Z,84.39
2023-07-11T00:24:01.319Z,84.69
2023-07-11T00:25:01.300Z,84.65
2023-07-11T00:26:01.284Z,84.75
2023-07-11T00:27:01.253Z,84.69
2023-07-11T00:28:01.292Z,84.49
2023-07-11T00:29:01.233Z,84.49
2023-07-11T00:30:01.287Z,84.39
2023-07-11T00:31:01.246Z,84.59
2023-07-11T00:32:01.217Z,84.69
2023-07-11T00:33:01.253Z,84.80
2023-07-11T00:34:01.214Z,84.69
2023-07-11T00:35:01.313Z,85.10
2023-07-11T00:36:01.193Z,85.30
2023-07-11T00:37:01.150Z,85.20
2023-07-11T00:38:01.173Z,85.20
2023-07-11T00:39:01.142Z,85.40
2023-07-11T00:40:01.130Z,85.34
2023-07-11T00:41:01.114Z,85.40
2023-07-11T00:42:01.113Z,85.30
2023-07-11T00:43:01.082Z,85.20
2023-07-11T00:44:01.121Z,85.24
2023-07-11T00:45:01.095Z,85.64
2023-07-11T00:46:01.091Z,85.64
2023-07-11T00:47:01.061Z,85.64
2023-07-11T00:48:01.133Z,85.74
2023-07-11T00:49:01.026Z,85.74
2023-07-11T00:50:01.063Z,85.74
2023-07-11T00:51:00.995Z,85.64
2023-07-11T00:52:01.035Z,85.24
2023-07-11T00:53:00.979Z,85.14
2023-07-11T00:54:01.007Z,85.34
2023-07-11T00:55:00.968Z,85.34
2023-07-11T00:56:00.987Z,85.44
2023-07-11T00:57:00.942Z,85.34
2023-07-11T00:58:00.963Z,85.34
2023-07-11T00:59:00.915Z,85.34
2023-07-11T01:00:00.935Z,85.34
2023-07-11T01:01:00.922Z,85.14
2023-07-11T01:02:00.900Z,85.44
2023-07-11T01:03:01.028Z,85.34
2023-07-11T01:04:01.019Z,85.54
2023-07-11T01:05:00.857Z,85.74
2023-07-11T01:06:00.889Z,85.48
2023-07-11T01:07:00.821Z,85.28
2023-07-11T01:08:00.852Z,85.28
2023-07-11T01:09:00.798Z,84.97
2023-07-11T01:10:00.826Z,85.08
2023-07-11T01:11:00.776Z,85.38
2023-07-11T01:12:00.811Z,85.28
2023-07-11T01:13:00.756Z,85.08
2023-07-11T01:14:00.852Z,85.17
2023-07-11T01:15:00.767Z,85.38
2023-07-11T01:16:00.764Z,85.68
2023-07-11T01:17:00.808Z,85.58
2023-07-11T01:18:00.794Z,85.58
2023-07-11T01:19:00.695Z,85.68
2023-07-11T01:20:00.723Z,85.68
2023-07-11T01:21:00.664Z,85.98
2023-07-11T01:22:00.710Z,86.08
2023-07-11T01:23:00.649Z,85.88
2023-07-11T01:24:00.668Z,85.88
2023-07-11T01:25:00.687Z,85.88
2023-07-11T01:26:00.661Z,86.29
2023-07-11T01:27:00.613Z,86.43
2023-07-11T01:28:00.632Z,86.43
2023-07-11T01:29:00.605Z,86.63
2023-07-11T01:30:00.591Z,86.63
2023-07-11T01:31:00.629Z,86.53
2023-07-11T01:32:00.563Z,86.83
2023-07-11T01:33:00.588Z,87.03
2023-07-11T01:34:00.554Z,87.23
2023-07-11T01:35:00.531Z,87.13
2023-07-11T01:36:00.548Z,86.93
2023-07-11T01:37:00.491Z,86.73
2023-07-11T01:38:00.529Z,86.53
2023-07-11T01:39:00.491Z,86.43
2023-07-11T01:40:00.502Z,86.63
2023-07-11T01:41:00.444Z,86.93
2023-07-11T01:42:00.476Z,86.93
2023-07-11T01:43:00.430Z,87.13
2023-07-11T01:44:00.453Z,87.23
2023-07-11T01:45:00.414Z,87.23
2023-07-11T01:46:00.477Z,87.34
2023-07-11T01:47:00.381Z,87.34
2023-07-11T01:48:00.459Z,87.34
2023-07-11T01:49:00.377Z,87.13
2023-07-11T01:50:00.374Z,87.03
2023-07-11T01:51:00.328Z,87.23
2023-07-11T01:52:00.350Z,87.23
2023-07-11T01:53:00.306Z,87.13
2023-07-11T01:54:00.328Z,87.18
2023-07-11T01:55:07.320Z,87.38
2023-07-11T01:56:00.309Z,87.27
2023-07-11T01:57:00.275Z,86.87
2023-07-11T01:58:00.293Z,86.87
2023-07-11T01:59:00.237Z,86.97
2023-07-11T02:00:00.311Z,87.07
2023-07-11T02:01:00.226Z,87.27
2023-07-11T02:02:00.324Z,87.18
2023-07-11T02:03:00.352Z,87.58
2023-07-11T02:04:00.229Z,87.58
2023-07-11T02:05:00.198Z,87.38
2023-07-11T02:06:00.204Z,87.58
2023-07-11T02:07:00.156Z,87.58
2023-07-11T02:08:00.197Z,87.62
2023-07-11T02:09:00.138Z,87.62
2023-07-11T02:10:00.152Z,87.72
2023-07-11T02:11:00.118Z,87.52
2023-07-11T02:12:00.133Z,87.72
2023-07-11T02:13:00.101Z,87.72
2023-07-11T02:14:00.177Z,87.92
2023-07-11T02:15:00.064Z,88.02
2023-07-11T02:16:00.131Z,88.32
2023-07-11T02:17:00.145Z,88.43
2023-07-11T02:18:00.078Z,88.43
2023-07-11T02:19:00.033Z,88.47
2023-07-11T02:20:00.029Z,88.57
2023-07-11T02:20:59.997Z,88.87
2023-07-11T02:22:00.027Z,89.17
2023-07-11T02:22:59.987Z,89.28
2023-07-11T02:23:59.971Z,89.28
2023-07-11T02:24:59.975Z,89.28
2023-07-11T02:25:59.956Z,90.08
2023-07-11T02:26:59.966Z,90.08
2023-07-11T02:27:59.938Z,89.78
2023-07-11T02:28:59.943Z,89.58
2023-07-11T02:29:59.906Z,89.78
2023-07-11T02:30:59.907Z,89.58
2023-07-11T02:31:59.968Z,89.48
2023-07-11T02:32:59.894Z,89.48
2023-07-11T02:33:59.858Z,89.68
2023-07-11T02:34:59.862Z,89.48
2023-07-11T02:35:59.846Z,89.17
2023-07-11T02:36:59.859Z,89.17
2023-07-11T02:37:59.811Z,89.37
2023-07-11T02:38:59.831Z,89.07
2023-07-11T02:39:59.788Z,88.87
2023-07-11T02:40:59.807Z,88.97
2023-07-11T02:41:59.783Z,89.07
2023-07-11T02:42:59.778Z,88.87
2023-07-11T02:43:59.761Z,88.83
2023-07-11T02:44:59.766Z,88.87
2023-07-11T02:45:59.775Z,88.97
2023-07-11T02:46:59.745Z,89.07
2023-07-11T02:47:59.750Z,88.97
2023-07-11T02:48:59.695Z,89.17
2023-07-11T02:49:59.779Z,88.87
2023-07-11T02:50:59.701Z,88.57
2023-07-11T02:51:59.620Z,88.37
2023-07-11T02:52:59.625Z,88.87
2023-07-11T02:53:59.589Z,89.07
2023-07-11T02:54:59.655Z,89.17
2023-07-11T02:55:59.634Z,89.37
2023-07-11T02:56:59.600Z,89.37
2023-07-11T02:57:59.548Z,89.37
2023-07-11T02:58:59.576Z,89.58
2023-07-11T02:59:59.572Z,89.72
2023-07-11T03:00:59.639Z,89.68
2023-07-11T03:01:59.564Z,89.62
2023-07-11T03:02:59.579Z,89.52
2023-07-11T03:03:59.477Z,89.42
2023-07-11T03:04:59.542Z,89.52
2023-07-11T03:05:59.457Z,89.52
2023-07-11T03:06:59.475Z,89.72
2023-07-11T03:07:59.445Z,90.12
2023-07-11T03:08:59.455Z,90.03
2023-07-11T03:09:59.409Z,90.23
2023-07-11T03:10:59.449Z,90.43
2023-07-11T03:11:59.399Z,90.53
2023-07-11T03:12:59.426Z,90.43
2023-07-11T03:13:59.384Z,90.12
2023-07-11T03:15:01.230Z,90.03
2023-07-11T03:15:59.357Z,89.92
2023-07-11T03:16:59.483Z,89.72
2023-07-11T03:17:59.378Z,90.03
2023-07-11T03:18:59.350Z,89.92
2023-07-11T03:19:59.301Z,89.92
2023-07-11T03:20:59.320Z,89.92
2023-07-11T03:21:59.299Z,89.87
2023-07-11T03:22:59.305Z,89.87
2023-07-11T03:23:59.257Z,90.07
2023-07-11T03:24:59.297Z,90.58
2023-07-11T03:25:59.249Z,90.67
2023-07-11T03:26:59.245Z,90.67
2023-07-11T03:27:59.222Z,90.58
2023-07-11T03:28:59.229Z,90.47
2023-07-11T03:29:59.203Z,90.27
2023-07-11T03:30:59.244Z,90.07
2023-07-11T03:31:59.166Z,89.87
2023-07-11T03:32:59.317Z,90.07
2023-07-11T03:33:59.152Z,90.07
2023-07-11T03:35:03.524Z,90.17
2023-07-11T03:35:59.153Z,90.17
2023-07-11T03:36:59.154Z,90.37
2023-07-11T03:37:59.103Z,90.37
2023-07-11T03:38:59.115Z,90.67
2023-07-11T03:39:59.087Z,90.67
2023-07-11T03:40:59.116Z,91.18
2023-07-11T03:41:59.059Z,91.08
2023-07-11T03:42:59.103Z,90.98
2023-07-11T03:43:59.063Z,90.78
2023-07-11T03:44:59.064Z,90.67
2023-07-11T03:45:59.044Z,90.47
2023-07-11T03:46:59.146Z,90.37
2023-07-11T03:47:59.057Z,90.17
2023-07-11T03:48:59.015Z,90.07
2023-07-11T03:49:58.984Z,89.97
2023-07-11T03:50:58.986Z,89.76
2023-07-11T03:51:58.953Z,89.87
2023-07-11T03:52:58.949Z,89.97
2023-07-11T03:53:58.931Z,90.17
2023-07-11T03:54:58.931Z,90.07
2023-07-11T03:55:58.908Z,90.17
2023-07-11T03:56:58.920Z,90.07
2023-07-11T03:57:58.889Z,89.97
2023-07-11T03:58:58.899Z,90.07
2023-07-11T03:59:58.855Z,90.07
2023-07-11T04:00:58.888Z,90.07
2023-07-11T04:01:58.838Z,90.07
2023-07-11T04:02:58.914Z,90.27
2023-07-11T04:03:58.852Z,90.27
2023-07-11T04:04:58.833Z,90.37
2023-07-11T04:05:58.787Z,90.58
2023-07-11T04:06:58.824Z,91.18
2023-07-11T04:08:05.283Z,91.38
2023-07-11T04:08:58.771Z,91.18
2023-07-11T04:09:58.741Z,91.08
2023-07-11T04:10:58.761Z,91.08
2023-07-11T04:11:58.740Z,91.18
2023-07-11T04:12:58.758Z,91.58
2023-07-11T04:13:58.764Z,91.49
2023-07-11T04:14:58.775Z,91.89
2023-07-11T04:15:58.674Z,91.89
2023-07-11T04:16:58.860Z,91.78
2023-07-11T04:17:58.683Z,91.69
2023-07-11T04:18:58.665Z,91.69
2023-07-11T04:19:58.650Z,91.78
2023-07-11T04:20:58.639Z,91.99
2023-07-11T04:21:58.646Z,92.19
2023-07-11T04:22:58.614Z,92.09
2023-07-11T04:23:58.630Z,92.09
2023-07-11T04:24:58.625Z,92.19
2023-07-11T04:25:58.562Z,92.29
2023-07-11T04:26:58.617Z,92.60
2023-07-11T04:27:58.576Z,92.80
2023-07-11T04:28:58.566Z,92.40
2023-07-11T04:29:58.530Z,92.29
2023-07-11T04:30:58.628Z,92.29
2023-07-11T04:31:58.494Z,92.09
2023-07-11T04:32:58.607Z,91.78
2023-07-11T04:33:58.489Z,92.40
2023-07-11T04:34:58.499Z,92.40
2023-07-11T04:35:58.488Z,92.45
2023-07-11T04:36:58.479Z,92.76
2023-07-11T04:37:58.433Z,93.26
2023-07-11T04:38:58.442Z,93.16
2023-07-11T04:39:58.411Z,92.76
2023-07-11T04:40:58.432Z,92.55
2023-07-11T04:41:58.410Z,92.45
2023-07-11T04:42:58.417Z,92.25
2023-07-11T04:43:58.398Z,92.05
2023-07-11T04:44:58.386Z,92.14
2023-07-11T04:45:58.348Z,92.61
2023-07-11T04:46:58.477Z,92.81
2023-07-11T04:47:58.370Z,93.32
2023-07-11T04:48:58.348Z,93.41
2023-07-11T04:49:58.308Z,93.32
2023-07-11T04:50:58.331Z,93.21
2023-07-11T04:51:58.349Z,93.48
2023-07-11T04:52:58.295Z,93.27
2023-07-11T04:53:58.257Z,93.17
2023-07-11T04:54:58.283Z,93.17
2023-07-11T04:55:58.263Z,93.23
2023-07-11T04:56:58.254Z,93.33
2023-07-11T04:57:58.217Z,93.23
2023-07-11T04:58:58.239Z,93.13
2023-07-11T04:59:58.193Z,92.93
2023-07-11T05:00:58.242Z,92.93
2023-07-11T05:01:58.242Z,92.93
2023-07-11T05:02:58.191Z,92.88
2023-07-11T05:03:58.178Z,92.88
2023-07-11T05:04:58.162Z,92.88
2023-07-11T05:05:58.140Z,92.88
2023-07-11T05:06:58.158Z,92.98
2023-07-11T05:07:58.105Z,92.78
2023-07-11T05:08:58.124Z,92.63
2023-07-11T05:09:59.527Z,92.33
2023-07-11T05:10:58.098Z,92.94
2023-07-11T05:11:58.061Z,92.54
2023-07-11T05:12:58.097Z,92.13
2023-07-11T05:13:58.092Z,91.83
2023-07-11T05:14:58.049Z,91.49
2023-07-11T05:15:58.090Z,91.28
2023-07-11T05:16:58.087Z,90.98
2023-07-11T05:17:58.082Z,90.78
2023-07-11T05:18:58.015Z,90.44
2023-07-11T05:19:57.978Z,90.73
2023-07-11T05:20:58.020Z,90.23
2023-07-11T05:21:57.967Z,89.79
2023-07-11T05:22:57.973Z,89.59
2023-07-11T05:23:57.936Z,89.39
2023-07-11T05:24:57.952Z,89.08
2023-07-11T05:25:57.923Z,88.64
2023-07-11T05:26:57.936Z,88.34
2023-07-11T05:28:15.025Z,88.13
2023-07-11T05:28:57.972Z,87.89
2023-07-11T05:30:13.565Z,87.69
2023-07-11T05:30:58.024Z,87.08
2023-07-11T05:32:12.570Z,86.79
2023-07-11T05:32:57.950Z,86.65
2023-07-11T05:34:07.915Z,86.24
2023-07-11T05:34:57.973Z,86.04
2023-07-11T05:36:13.357Z,85.74
2023-07-11T05:36:57.993Z,85.50
2023-07-11T05:37:57.947Z,85.19
2023-07-11T05:38:57.975Z,85.19
2023-07-11T05:39:57.860Z,85.19
2023-07-11T05:40:57.952Z,85.10
2023-07-11T05:41:57.910Z,84.15
2023-07-11T05:42:57.946Z,83.85
2023-07-11T05:43:57.888Z,83.85
2023-07-11T05:44:57.947Z,83.25
2023-07-11T05:45:57.883Z,82.90
2023-07-11T05:46:57.891Z,82.51
2023-07-11T05:47:57.854Z,82.40
2023-07-11T05:48:57.859Z,82.40
2023-07-11T05:49:57.811Z,82.06
2023-07-11T05:50:57.847Z,81.56
2023-07-11T05:51:57.804Z,81.16
2023-07-11T05:52:57.781Z,80.96
2023-07-11T05:53:57.783Z,80.52
2023-07-11T05:54:57.733Z,80.42
2023-07-11T05:55:57.752Z,80.32
2023-07-11T05:56:57.796Z,80.18
2023-07-11T05:57:57.739Z,79.38
2023-07-11T05:58:57.730Z,79.48
2023-07-11T05:59:57.682Z,79.28
2023-07-11T06:00:57.722Z,78.18
2023-07-11T06:01:57.848Z,78.44
2023-07-11T06:02:57.568Z,77.54
2023-07-11T06:03:57.534Z,77.44
2023-07-11T06:04:57.506Z,77.24
2023-07-11T06:05:57.490Z,77.20
2023-07-11T06:06:57.505Z,77.20
2023-07-11T06:07:57.462Z,76.90
2023-07-11T06:08:57.473Z,76.70
2023-07-11T06:09:57.575Z,76.50
2023-07-11T06:10:57.443Z,75.96
2023-07-11T06:11:57.446Z,75.87
2023-07-11T06:12:57.426Z,75.96
2023-07-11T06:13:57.454Z,75.37
2023-07-11T06:14:57.397Z,75.16
2023-07-11T06:15:57.420Z,75.46
2023-07-11T06:16:57.527Z,74.22
2023-07-11T06:17:57.402Z,74.22
2023-07-11T06:18:57.357Z,74.33
2023-07-11T06:19:57.312Z,74.53
2023-07-11T06:20:57.341Z,74.63
2023-07-11T06:21:57.301Z,74.33
2023-07-11T06:22:57.342Z,74.29
2023-07-11T06:23:57.406Z,73.89
2023-07-11T06:24:57.293Z,72.59
2023-07-11T06:25:57.249Z,71.99
2023-07-11T06:26:57.283Z,72.29
2023-07-11T06:27:57.253Z,72.16
2023-07-11T06:28:57.255Z,73.46
2023-07-11T06:29:57.206Z,71.66
2023-07-11T06:30:57.233Z,70.56
2023-07-11T06:31:57.222Z,70.62
2023-07-11T06:32:57.260Z,70.92
2023-07-11T06:33:57.186Z,71.52
2023-07-11T06:34:57.168Z,70.12
2023-07-11T06:35:57.156Z,69.89
2023-07-11T06:36:57.168Z,69.59
2023-07-11T06:37:57.151Z,69.20
2023-07-11T06:38:57.127Z,68.79
2023-07-11T06:39:57.111Z,68.19
2023-07-11T06:40:57.087Z,66.36
2023-07-11T06:41:57.114Z,66.77
2023-07-11T06:42:57.071Z,67.66
2023-07-11T06:43:57.142Z,67.76
2023-07-11T06:44:57.045Z,68.36
2023-07-11T06:45:57.147Z,67.86
2023-07-11T06:46:57.018Z,67.93
2023-07-11T06:47:57.049Z,68.53
2023-07-11T06:48:57.022Z,67.73
2023-07-11T06:49:57.002Z,66.93
2023-07-11T06:50:56.991Z,67.10
2023-07-11T06:51:56.987Z,66.40
2023-07-11T06:52:56.975Z,65.61
2023-07-11T06:53:56.957Z,66.20
2023-07-11T06:54:56.931Z,65.27
2023-07-11T06:55:56.936Z,65.47
2023-07-11T06:56:56.945Z,65.77
2023-07-11T06:57:56.916Z,65.64
2023-07-11T06:58:56.889Z,64.94
2023-07-11T06:59:56.900Z,65.14
2023-07-11T07:00:56.964Z,64.94
2023-07-11T07:01:56.925Z,64.72
2023-07-11T07:02:56.910Z,63.92
2023-07-11T07:03:56.889Z,63.62
2023-07-11T07:04:56.833Z,64.01
2023-07-11T07:05:56.847Z,62.49
2023-07-11T07:06:56.804Z,62.19
2023-07-11T07:08:09.049Z,62.66
2023-07-11T07:08:56.779Z,61.37
2023-07-11T07:09:56.804Z,60.55
2023-07-11T07:10:56.842Z,60.61
2023-07-11T07:11:56.841Z,59.59
2023-07-11T07:12:56.744Z,58.74
2023-07-11T07:14:05.492Z,58.15
2023-07-11T07:14:56.713Z,58.22
2023-07-11T07:15:56.731Z,57.69
2023-07-11T07:16:56.714Z,56.45
2023-07-11T07:17:56.793Z,56.32
2023-07-11T07:18:56.668Z,54.52
2023-07-11T07:19:56.674Z,53.08
2023-07-11T07:20:58.467Z,53.45
2023-07-11T07:21:56.682Z,52.53
2023-07-11T07:22:56.641Z,51.97
2023-07-11T07:23:56.650Z,51.84
2023-07-11T07:24:56.604Z,51.45
2023-07-11T07:25:56.624Z,51.13
2023-07-11T07:26:56.603Z,50.71
2023-07-11T07:27:56.599Z,49.60
2023-07-11T07:28:56.566Z,49.60
2023-07-11T07:29:56.581Z,50.59
2023-07-11T07:30:56.578Z,49.38
2023-07-11T07:31:56.542Z,49.35
2023-07-11T07:32:56.578Z,49.45
2023-07-11T07:33:56.524Z,49.43
2023-07-11T07:34:56.498Z,48.94
2023-07-11T07:35:56.504Z,47.95
2023-07-11T07:36:56.480Z,47.22
2023-07-11T07:37:56.512Z,46.55
2023-07-11T07:38:56.466Z,46.45
2023-07-11T07:39:56.471Z,46.55
2023-07-11T07:40:56.448Z,45.27
2023-07-11T07:41:56.450Z,45.25
2023-07-11T07:42:56.413Z,45.03
2023-07-11T07:43:56.497Z,45.10
2023-07-11T07:44:56.398Z,44.93
2023-07-11T07:45:56.397Z,44.32
2023-07-11T07:46:56.489Z,43.22
2023-07-11T07:47:56.434Z,43.19
2023-07-11T07:48:56.358Z,42.58
2023-07-11T07:49:57.974Z,43.66
2023-07-11T07:50:56.335Z,43.22
2023-07-11T07:51:56.359Z,43.61
2023-07-11T07:52:56.309Z,43.80
2023-07-11T07:53:56.328Z,43.88
2023-07-11T07:54:56.313Z,42.98
2023-07-11T07:55:56.313Z,43.18
2023-07-11T07:56:56.283Z,43.96
2023-07-11T07:57:56.319Z,45.14
2023-07-11T07:58:56.273Z,42.98
2023-07-11T07:59:56.250Z,42.71
2023-07-11T08:00:56.255Z,43.88
2023-07-11T08:01:56.237Z,43.59
2023-07-11T08:02:56.255Z,42.79
2023-07-11T08:03:56.288Z,43.18
2023-07-11T08:04:56.251Z,42.57
2023-07-11T08:06:05.783Z,42.86
2023-07-11T08:06:56.184Z,41.88
2023-07-11T08:07:56.217Z,42.37
2023-07-11T08:08:56.173Z,41.96
2023-07-11T08:09:56.170Z,41.55
2023-07-11T08:10:56.118Z,40.37
2023-07-11T08:11:56.163Z,41.29
2023-07-11T08:12:56.097Z,40.98
2023-07-11T08:14:00.022Z,40.00
2023-07-11T08:14:56.084Z,40.78
2023-07-11T08:15:56.106Z,41.56
2023-07-11T08:16:56.106Z,41.45
2023-07-11T08:17:56.128Z,38.80
2023-07-11T08:18:56.053Z,39.03
2023-07-11T08:19:56.062Z,39.54
2023-07-11T08:20:56.045Z,40.33
2023-07-11T08:21:56.035Z,40.92
2023-07-11T08:22:56.002Z,40.80
2023-07-11T08:23:56.020Z,40.56
2023-07-11T08:24:55.987Z,39.96
2023-07-11T08:25:56.012Z,39.25
2023-07-11T08:26:55.963Z,37.87
2023-07-11T08:27:55.986Z,37.47
2023-07-11T08:28:56.150Z,39.15
2023-07-11T08:29:55.954Z,38.39
2023-07-11T08:30:55.963Z,39.07
2023-07-11T08:31:55.960Z,38.20
2023-07-11T08:32:55.955Z,38.57
2023-07-11T08:33:55.904Z,36.61
2023-07-11T08:34:55.888Z,36.80
2023-07-11T08:35:55.878Z,36.32
2023-07-11T08:36:55.853Z,37.19
2023-07-11T08:37:55.896Z,36.61
2023-07-11T08:38:55.859Z,37.51
2023-07-11T08:39:55.840Z,37.43
2023-07-11T08:40:55.822Z,38.78
2023-07-11T08:41:55.829Z,35.73
2023-07-11T08:42:55.798Z,35.60
2023-07-11T08:43:55.835Z,34.41
2023-07-11T08:44:55.782Z,33.89
2023-07-11T08:46:10.721Z,33.59
2023-07-11T08:46:55.779Z,32.60
2023-07-11T08:47:55.818Z,33.11
2023-07-11T08:48:55.755Z,32.91
2023-07-11T08:49:55.749Z,34.28
2023-07-11T08:50:55.752Z,34.08
2023-07-11T08:51:55.730Z,34.77
2023-07-11T08:52:55.695Z,35.14
2023-07-11T08:53:55.744Z,33.46
2023-07-11T08:54:55.702Z,34.91
2023-07-11T08:55:55.698Z,35.69
2023-07-11T08:56:55.644Z,33.82
2023-07-11T08:57:55.789Z,34.79
2023-07-11T08:58:55.636Z,31.87
2023-07-11T08:59:55.629Z,32.63
2023-07-11T09:00:55.614Z,32.08
2023-07-11T09:01:55.703Z,33.97
2023-07-11T09:02:56.875Z,33.67
2023-07-11T09:03:55.600Z,35.14
2023-07-11T09:04:55.572Z,33.85
2023-07-11T09:05:55.588Z,34.61
2023-07-11T09:06:55.540Z,31.95
2023-07-11T09:07:55.566Z,31.85
2023-07-11T09:08:55.625Z,31.74
2023-07-11T09:09:55.527Z,32.81
2023-07-11T09:10:55.503Z,30.57
2023-07-11T09:11:55.539Z,31.54
2023-07-11T09:13:03.076Z,31.56
2023-07-11T09:13:55.556Z,32.40
2023-07-11T09:14:55.466Z,33.98
2023-07-11T09:15:55.554Z,33.31
2023-07-11T09:16:55.552Z,33.22
2023-07-11T09:17:55.470Z,33.70
2023-07-11T09:18:55.422Z,33.59
2023-07-11T09:19:55.459Z,33.67
2023-07-11T09:20:55.408Z,32.60
2023-07-11T09:21:55.434Z,33.77
2023-07-11T09:22:55.386Z,33.40
2023-07-11T09:23:59.165Z,34.31
2023-07-11T09:24:55.876Z,34.99
2023-07-11T09:25:55.393Z,34.58
2023-07-11T09:26:55.366Z,35.53
2023-07-11T09:27:55.369Z,33.34
2023-07-11T09:28:55.338Z,32.45
2023-07-11T09:29:55.355Z,31.54
2023-07-11T09:30:55.715Z,30.93
2023-07-11T09:31:55.373Z,31.40
2023-07-11T09:32:55.367Z,31.29
2023-07-11T09:33:55.319Z,31.14
2023-07-11T09:34:55.272Z,32.13
2023-07-11T09:35:55.281Z,32.91
2023-07-11T09:36:55.249Z,31.84
2023-07-11T09:37:55.267Z,32.11
2023-07-11T09:38:55.225Z,31.16
2023-07-11T09:39:55.251Z,33.01
2023-07-11T09:40:55.205Z,31.24
2023-07-11T09:41:55.232Z,31.32
2023-07-11T09:42:55.208Z,33.15
2023-07-11T09:43:55.199Z,30.61
2023-07-11T09:44:55.204Z,29.64
2023-07-11T09:45:55.217Z,30.14
2023-07-11T09:46:55.166Z,30.52
2023-07-11T09:47:55.202Z,30.33
2023-07-11T09:48:55.137Z,31.00
2023-07-11T09:49:55.160Z,30.25
2023-07-11T09:51:55.142Z,32.79
2023-07-11T09:52:55.091Z,32.89
2023-07-11T09:53:55.140Z,33.75
2023-07-11T09:55:07.295Z,32.02
2023-07-11T09:56:55.053Z,31.61
2023-07-11T09:57:55.065Z,31.43
2023-07-11T09:58:55.057Z,31.45
2023-07-11T09:59:55.694Z,31.95
2023-07-11T10:00:55.063Z,32.06
2023-07-11T10:01:55.197Z,31.56
2023-07-11T10:02:55.047Z,32.50
2023-07-11T10:03:55.031Z,31.51
2023-07-11T10:04:55.033Z,30.72
2023-07-11T10:05:55.007Z,31.30
2023-07-11T10:06:54.965Z,33.06
2023-07-11T10:07:54.973Z,32.17
2023-07-11T10:08:54.944Z,30.40
2023-07-11T10:09:54.977Z,30.85
2023-07-11T10:10:54.934Z,30.57
2023-07-11T10:11:54.929Z,31.71
2023-07-11T10:12:54.996Z,28.61
2023-07-11T10:13:54.989Z,28.69
2023-07-11T10:14:54.895Z,28.19
2023-07-11T10:15:54.911Z,27.79
2023-07-11T10:16:55.031Z,27.50
2023-07-11T10:17:54.965Z,28.08
2023-07-11T10:18:54.855Z,28.18
2023-07-11T10:20:03.658Z,28.86
2023-07-11T10:20:54.837Z,27.51
2023-07-11T10:21:54.848Z,28.63
2023-07-11T10:22:54.819Z,28.63
2023-07-11T10:23:54.838Z,29.00
2023-07-11T10:24:54.790Z,29.06
2023-07-11T10:25:54.836Z,29.24
2023-07-11T10:26:54.801Z,29.34
2023-07-11T10:27:55.816Z,28.39
2023-07-11T10:28:54.752Z,30.24
2023-07-11T10:29:54.760Z,30.23
2023-07-11T10:30:54.814Z,28.18
2023-07-11T10:31:54.770Z,27.49
2023-07-11T10:32:57.543Z,26.99
2023-07-11T10:33:57.465Z,27.37
2023-07-11T10:34:54.732Z,27.00
2023-07-11T10:35:54.714Z,28.12
2023-07-11T10:36:54.675Z,28.63
2023-07-11T10:37:54.707Z,28.63
2023-07-11T10:38:54.668Z,28.70
2023-07-11T10:39:54.680Z,29.76
2023-07-11T10:40:54.669Z,29.26
2023-07-11T10:41:54.654Z,29.06
2023-07-11T10:42:54.661Z,29.05
2023-07-11T10:43:54.666Z,27.91
2023-07-11T10:44:54.614Z,28.87
2023-07-11T10:45:54.624Z,30.23
2023-07-11T10:46:54.640Z,30.04
2023-07-11T10:47:54.649Z,29.83
2023-07-11T10:48:54.577Z,27.91
2023-07-11T10:49:54.585Z,27.91
2023-07-11T10:50:54.552Z,28.74
2023-07-11T10:51:54.592Z,28.64
2023-07-11T10:52:54.528Z,28.94
2023-07-11T10:53:54.530Z,29.64
2023-07-11T10:54:54.533Z,30.61
2023-07-11T10:55:54.507Z,30.19
2023-07-11T10:56:54.534Z,28.33
2023-07-11T10:57:54.491Z,28.33
2023-07-11T10:58:54.497Z,28.44
2023-07-11T10:59:54.463Z,28.93
2023-07-11T11:00:54.502Z,30.47
2023-07-11T11:01:54.476Z,29.00
2023-07-11T11:02:54.622Z,28.33
2023-07-11T11:03:54.491Z,29.52
2023-07-11T11:04:54.476Z,28.93
2023-07-11T11:05:54.444Z,28.81
2023-07-11T11:06:54.439Z,30.15
2023-07-11T11:07:54.395Z,29.63
2023-07-11T11:08:54.412Z,27.19
2023-07-11T11:09:54.392Z,27.08
2023-07-11T11:10:54.452Z,26.28
2023-07-11T11:11:56.444Z,27.71
2023-07-11T11:12:54.372Z,26.82
2023-07-11T11:13:54.420Z,27.78
2023-07-11T11:14:54.344Z,25.08
2023-07-11T11:15:54.322Z,24.21
2023-07-11T11:16:54.329Z,24.61
2023-07-11T11:17:54.391Z,26.84
2023-07-11T11:18:54.340Z,25.40
2023-07-11T11:19:54.291Z,25.12
2023-07-11T11:21:06.256Z,25.03
2023-07-11T11:21:54.269Z,27.14
2023-07-11T11:22:54.283Z,25.31
2023-07-11T11:23:54.240Z,25.12
2023-07-11T11:24:54.294Z,25.24
2023-07-11T11:25:54.223Z,25.65
2023-07-11T11:26:54.253Z,26.43
2023-07-11T11:27:54.240Z,27.21
2023-07-11T11:28:54.222Z,27.00
2023-07-11T11:29:54.189Z,29.41
2023-07-11T11:30:54.291Z,28.61
2023-07-11T11:31:54.176Z,27.33
2023-07-11T11:32:54.261Z,24.80
2023-07-11T11:33:54.164Z,24.01
2023-07-11T11:35:04.182Z,23.91
2023-07-11T11:35:54.144Z,23.61
2023-07-11T11:36:54.158Z,24.09
2023-07-11T11:37:54.123Z,23.69
2023-07-11T11:38:54.133Z,22.81
2023-07-11T11:39:54.117Z,23.78
2023-07-11T11:40:54.154Z,22.61
2023-07-11T11:41:54.085Z,22.69
2023-07-11T11:43:01.301Z,22.71
2023-07-11T11:46:53.371Z,24.92
2023-07-11T11:49:42.556Z,25.13
2023-07-11T11:50:39.698Z,24.92
2023-07-11T11:50:58.184Z,26.67
2023-07-11T11:51:58.328Z,26.07
2023-07-11T11:52:59.758Z,24.79
2023-07-11T11:53:58.257Z,23.52
2023-07-11T11:54:58.304Z,23.13
2023-07-11T11:56:10.666Z,23.33
2023-07-11T11:56:58.265Z,24.13
2023-07-11T11:57:58.230Z,23.45
2023-07-11T11:58:58.275Z,24.05
2023-07-11T11:59:58.226Z,23.47
2023-07-11T12:00:58.215Z,23.87
2023-07-11T12:01:58.222Z,24.35
2023-07-11T12:02:58.273Z,23.76
2023-07-11T12:03:58.222Z,23.75
2023-07-11T12:04:58.292Z,23.83
2023-07-11T12:05:58.158Z,22.88
2023-07-11T12:06:58.160Z,23.24
2023-07-11T12:07:58.140Z,23.46
2023-07-11T12:08:58.152Z,24.57
2023-07-11T12:09:58.367Z,25.05
2023-07-11T12:10:58.236Z,24.66
2023-07-11T12:11:58.335Z,24.27
2023-07-11T12:12:58.168Z,24.37
2023-07-11T12:13:58.339Z,24.16
2023-07-11T12:14:58.161Z,24.35
2023-07-11T12:15:58.104Z,24.07
2023-07-11T12:16:58.120Z,24.07
2023-07-11T12:17:58.096Z,24.68
2023-07-11T12:18:58.160Z,24.68
2023-07-11T12:19:58.041Z,24.77
2023-07-11T12:20:58.047Z,24.97
2023-07-11T12:21:58.223Z,24.87
2023-07-11T12:22:58.226Z,25.16
2023-07-11T12:24:39.999Z,25.05
2023-07-11T12:24:58.212Z,27.83
2023-07-11T12:26:00.506Z,24.65
2023-07-11T12:26:58.166Z,24.16
2023-07-11T12:27:58.093Z,24.82
2023-07-11T12:28:58.143Z,24.62
2023-07-11T12:29:58.014Z,25.12
2023-07-11T12:30:58.162Z,25.87
2023-07-11T12:31:58.181Z,24.72
2023-07-11T12:32:58.128Z,23.65
2023-07-11T12:33:58.054Z,24.32
2023-07-11T12:34:58.105Z,23.44
2023-07-11T12:35:58.129Z,24.10
2023-07-11T12:36:58.076Z,23.13
2023-07-11T12:37:58.112Z,23.22
2023-07-11T12:38:58.066Z,22.73
2023-07-11T12:39:58.065Z,22.63
2023-07-11T12:40:58.046Z,23.10
2023-07-11T12:41:58.016Z,24.16
2023-07-11T12:42:58.068Z,22.55
2023-07-11T12:43:57.934Z,22.94
2023-07-11T12:44:59.168Z,23.14
2023-07-11T12:45:58.003Z,23.44
2023-07-11T12:46:58.046Z,24.29
2023-07-11T12:47:57.968Z,23.15
2023-07-11T12:48:57.916Z,24.21
2023-07-11T12:49:58.006Z,23.15
2023-07-11T12:50:57.818Z,23.75
2023-07-11T12:51:57.978Z,24.55
2023-07-11T12:52:57.980Z,24.74
2023-07-11T12:53:58.038Z,25.25
2023-07-11T12:54:57.782Z,25.67
2023-07-11T12:55:57.874Z,26.59
2023-07-11T12:56:57.871Z,26.46
2023-07-11T12:57:57.821Z,26.35